createdAt,value
2019-04-19T00:01:16.527Z,23.20
2019-04-19T00:03:45.313Z,23.20
2019-04-19T00:06:23.272Z,23.10
2019-04-19T00:09:03.886Z,23.10
2019-04-19T00:11:23.455Z,23.10
2019-04-19T00:13:43.129Z,23.20
2019-04-19T00:16:10.963Z,23.20
2019-04-19T00:18:48.015Z,23.20
2019-04-19T00:21:26.041Z,23.20
2019-04-19T00:23:40.812Z,23.10
2019-04-19T00:26:06.604Z,23.10
2019-04-19T00:28:42.326Z,23.10
2019-04-19T00:31:17.034Z,23.10
2019-04-19T00:33:40.408Z,23.20
2019-04-19T00:36:02.794Z,23.10
2019-04-19T00:38:45.322Z,23.10
2019-04-19T00:41:25.718Z,23.20
2019-04-19T00:43:53.637Z,23.10
2019-04-19T00:46:27.909Z,23.20
2019-04-19T00:48:53.205Z,23.10
2019-04-19T00:51:20.123Z,23.10
2019-04-19T00:53:46.485Z,23.10
2019-04-19T00:56:15.318Z,23.10
2019-04-19T00:58:38.908Z,23.10
2019-04-19T01:01:13.493Z,23.10
2019-04-19T01:03:40.998Z,23.10
2019-04-19T01:06:09.043Z,23.10
2019-04-19T01:08:38.205Z,23.10
2019-04-19T01:11:17.991Z,23.10
2019-04-19T01:13:45.190Z,23.10
2019-04-19T01:16:18.100Z,23.10
2019-04-19T01:18:43.136Z,23.10
2019-04-19T01:21:01.032Z,23.10
2019-04-19T01:23:29.076Z,23.10
2019-04-19T01:26:01.669Z,23.20
2019-04-19T01:28:28.814Z,23.20
2019-04-19T01:30:56.902Z,23.20
2019-04-19T01:33:35.628Z,23.20
2019-04-19T01:36:00.309Z,23.20
2019-04-19T01:38:32.518Z,23.10
2019-04-19T01:41:15.862Z,23.10
2019-04-19T01:43:48.398Z,23.10
2019-04-19T01:46:14.580Z,23.10
2019-04-19T01:48:57.354Z,23.10
2019-04-19T01:51:41.150Z,23.10
2019-04-19T01:54:05.843Z,23.10
2019-04-19T01:56:18.345Z,23.10
2019-04-19T01:58:50.924Z,23.10
2019-04-19T02:01:19.257Z,23.10
2019-04-19T02:03:47.624Z,23.10
2019-04-19T02:06:15.063Z,23.10
2019-04-19T02:08:50.346Z,23.10
2019-04-19T02:11:39.798Z,23.10
2019-04-19T02:14:06.749Z,23.10
2019-04-19T02:16:29.538Z,23.10
2019-04-19T02:19:03.331Z,23.10
2019-04-19T02:21:31.066Z,23.10
2019-04-19T02:23:59.075Z,23.10
2019-04-19T02:26:26.462Z,23.10
2019-04-19T02:28:56.559Z,23.10
2019-04-19T02:31:49.358Z,23.10
2019-04-19T02:37:03.872Z,23.10
2019-04-19T02:39:24.147Z,23.10
2019-04-19T02:41:50.089Z,23.10
2019-04-19T02:44:10.858Z,23.10
2019-04-19T02:46:52.860Z,23.10
2019-04-19T02:49:24.082Z,23.10
2019-04-19T02:51:50.264Z,23.10
2019-04-19T02:54:17.671Z,23.10
2019-04-19T02:59:38.709Z,23.10
2019-04-19T03:02:24.318Z,23.00
2019-04-19T03:04:58.963Z,23.10
2019-04-19T03:06:45.378Z,23.10
2019-04-19T03:09:07.222Z,23.10
2019-04-19T03:11:53.544Z,23.00
2019-04-19T03:14:18.036Z,23.10
2019-04-19T03:16:53.763Z,23.00
2019-04-19T03:19:13.327Z,23.10
2019-04-19T03:21:46.702Z,23.10
2019-04-19T03:24:16.821Z,23.00
2019-04-19T03:26:46.192Z,23.00
2019-04-19T03:29:08.808Z,23.00
2019-04-19T03:32:05.156Z,23.00
2019-04-19T03:34:20.908Z,23.00
2019-04-19T03:36:42.496Z,23.00
2019-04-19T03:39:18.139Z,23.00
2019-04-19T03:42:01.300Z,23.00
2019-04-19T03:44:34.349Z,23.00
2019-04-19T03:47:04.362Z,23.00
2019-04-19T03:49:37.147Z,23.00
2019-04-19T03:54:28.302Z,23.00
2019-04-19T03:56:55.083Z,23.00
2019-04-19T03:59:10.062Z,23.00
2019-04-19T04:01:44.314Z,23.00
2019-04-19T04:04:15.933Z,23.00
2019-04-19T04:06:37.887Z,23.00
2019-04-19T04:09:16.503Z,23.00
2019-04-19T04:11:56.190Z,23.00
2019-04-19T04:14:30.900Z,23.00
2019-04-19T04:17:00.193Z,23.00
2019-04-19T04:19:29.393Z,23.00
2019-04-19T04:21:57.677Z,23.00
2019-04-19T04:24:32.469Z,23.00
2019-04-19T04:27:05.797Z,23.00
2019-04-19T04:29:32.804Z,23.00
2019-04-19T04:32:05.315Z,23.00
2019-04-19T04:34:38.757Z,23.00
2019-04-19T04:37:08.489Z,23.00
2019-04-19T04:39:22.630Z,23.00
2019-04-19T04:42:05.079Z,23.00
2019-04-19T04:44:41.150Z,23.00
2019-04-19T04:47:24.085Z,23.00
2019-04-19T04:49:59.298Z,23.00
2019-04-19T04:52:30.742Z,23.00
2019-04-19T04:55:11.593Z,23.00
2019-04-19T04:57:47.705Z,23.10
2019-04-19T05:00:09.618Z,23.00
2019-04-19T05:02:54.785Z,23.00
2019-04-19T05:05:27.877Z,23.00
2019-04-19T05:07:59.524Z,23.10
2019-04-19T05:10:24.802Z,23.00
2019-04-19T05:13:10.707Z,23.10
2019-04-19T05:15:26.406Z,23.10
2019-04-19T05:17:58.711Z,23.10
2019-04-19T05:20:23.648Z,23.10
2019-04-19T05:22:54.991Z,23.10
2019-04-19T05:25:31.256Z,23.10
2019-04-19T05:27:55.635Z,23.10
2019-04-19T05:30:07.044Z,23.10
2019-04-19T05:32:37.649Z,23.10
2019-04-19T05:35:20.490Z,23.10
2019-04-19T05:38:00.853Z,23.10
2019-04-19T05:40:35.459Z,23.10
2019-04-19T05:43:06.433Z,23.10
2019-04-19T05:45:43.014Z,23.10
2019-04-19T05:47:59.435Z,23.10
2019-04-19T05:50:49.301Z,23.10
2019-04-19T05:53:06.613Z,23.20
2019-04-19T05:55:20.434Z,23.20
2019-04-19T05:58:02.070Z,23.30
2019-04-19T06:00:33.913Z,23.40
2019-04-19T06:03:02.265Z,23.50
2019-04-19T06:05:44.589Z,23.50
2019-04-19T06:07:59.706Z,23.50
2019-04-19T06:10:17.276Z,23.60
2019-04-19T06:12:45.311Z,23.60
2019-04-19T06:15:36.554Z,23.60
2019-04-19T06:18:05.534Z,23.60
2019-04-19T06:20:31.585Z,23.60
2019-04-19T06:23:02.846Z,23.60
2019-04-19T06:25:39.168Z,23.60
2019-04-19T06:28:12.674Z,23.60
2019-04-19T06:30:37.272Z,23.60
2019-04-19T06:33:02.337Z,23.50
2019-04-19T06:35:27.301Z,23.50
2019-04-19T06:37:43.918Z,23.50
2019-04-19T06:40:19.095Z,23.50
2019-04-19T06:42:47.904Z,23.50
2019-04-19T06:45:28.129Z,23.50
2019-04-19T06:47:48.350Z,23.50
2019-04-19T06:50:08.938Z,23.50
2019-04-19T06:52:38.139Z,23.50
2019-04-19T06:55:15.339Z,23.50
2019-04-19T06:57:49.008Z,23.60
2019-04-19T07:00:20.429Z,23.60
2019-04-19T07:02:36.997Z,23.60
2019-04-19T07:05:18.638Z,23.60
2019-04-19T07:08:02.910Z,23.50
2019-04-19T07:10:36.832Z,23.60
2019-04-19T07:12:59.859Z,23.50
2019-04-19T07:15:38.550Z,23.60
2019-04-19T07:17:52.410Z,23.50
2019-04-19T07:20:19.925Z,23.50
2019-04-19T07:22:52.094Z,23.50
2019-04-19T07:25:30.551Z,23.50
2019-04-19T07:27:44.248Z,23.50
2019-04-19T07:30:04.768Z,23.50
2019-04-19T07:32:37.440Z,23.50
2019-04-19T07:35:14.385Z,23.50
2019-04-19T07:37:46.391Z,23.50
2019-04-19T07:40:19.044Z,23.60
2019-04-19T07:42:44.523Z,23.60
2019-04-19T07:45:10.642Z,23.50
2019-04-19T07:47:52.426Z,23.60
2019-04-19T07:50:17.837Z,23.60
2019-04-19T07:52:47.376Z,23.60
2019-04-19T07:55:13.071Z,23.60
2019-04-19T08:00:37.425Z,23.70
2019-04-19T08:03:25.339Z,23.60
2019-04-19T08:05:36.692Z,23.90
2019-04-19T08:10:36.461Z,24.50
2019-04-19T08:17:54.708Z,24.50
2019-04-19T08:27:41.381Z,24.30
2019-04-19T08:30:10.228Z,24.10
2019-04-19T08:32:34.176Z,24.00
2019-04-19T08:35:07.015Z,24.00
2019-04-19T08:37:36.410Z,23.90
2019-04-19T08:40:21.006Z,23.90
2019-04-19T08:42:48.023Z,23.90
2019-04-19T08:45:05.019Z,23.80
2019-04-19T08:48:00.205Z,23.80
2019-04-19T08:50:24.428Z,23.70
2019-04-19T08:52:58.082Z,23.70
2019-04-19T08:55:43.101Z,23.70
2019-04-19T08:57:59.167Z,23.60
2019-04-19T09:03:03.041Z,23.60
2019-04-19T09:05:34.536Z,23.60
2019-04-19T09:08:08.858Z,23.60
2019-04-19T09:10:36.454Z,23.60
2019-04-19T09:13:19.197Z,23.60
2019-04-19T09:15:28.889Z,23.70
2019-04-19T09:20:37.335Z,23.80
2019-04-19T09:23:00.808Z,23.80
2019-04-19T09:25:46.878Z,23.80
2019-04-19T09:28:37.905Z,23.70
2019-04-19T09:30:52.070Z,23.70
2019-04-19T09:33:11.481Z,23.70
2019-04-19T09:35:39.967Z,23.70
2019-04-19T09:38:15.086Z,23.70
2019-04-19T09:40:41.444Z,23.70
2019-04-19T09:43:18.320Z,23.70
2019-04-19T09:45:31.907Z,23.70
2019-04-19T09:47:59.575Z,23.70
2019-04-19T09:50:42.555Z,23.70
2019-04-19T09:53:29.199Z,23.80
2019-04-19T09:55:46.077Z,23.80
2019-04-19T09:58:15.547Z,23.80
2019-04-19T10:00:28.208Z,23.80
2019-04-19T10:03:00.198Z,23.80
2019-04-19T10:05:24.132Z,23.90
2019-04-19T10:07:52.739Z,23.90
2019-04-19T10:10:20.780Z,24.00
2019-04-19T10:12:49.661Z,24.00
2019-04-19T10:15:28.323Z,24.00
2019-04-19T10:17:56.468Z,24.00
2019-04-19T10:20:40.823Z,24.00
2019-04-19T10:23:09.091Z,24.00
2019-04-19T10:25:48.010Z,24.10
2019-04-19T10:28:11.930Z,24.10
2019-04-19T10:30:41.271Z,24.20
2019-04-19T10:33:08.886Z,24.10
2019-04-19T10:35:37.758Z,24.20
2019-04-19T10:38:05.634Z,24.20
2019-04-19T10:40:33.542Z,24.20
2019-04-19T10:43:01.314Z,24.10
2019-04-19T10:45:29.985Z,24.10
2019-04-19T10:47:57.882Z,24.20
2019-04-19T10:50:35.474Z,24.20
2019-04-19T10:52:56.544Z,24.20
2019-04-19T10:55:26.541Z,24.20
2019-04-19T10:57:54.255Z,24.20
2019-04-19T11:00:21.815Z,24.20
2019-04-19T11:02:49.644Z,24.30
2019-04-19T11:05:18.681Z,24.30
2019-04-19T11:07:47.672Z,24.30
2019-04-19T11:10:15.841Z,24.30
2019-04-19T11:12:44.722Z,24.30
2019-04-19T11:15:12.864Z,24.30
2019-04-19T11:17:41.428Z,24.30
2019-04-19T11:20:23.325Z,24.50
2019-04-19T11:22:39.699Z,24.50
2019-04-19T11:25:08.106Z,24.30
2019-04-19T11:27:35.819Z,24.30
2019-04-19T11:30:05.827Z,24.30
2019-04-19T11:32:41.985Z,24.30
2019-04-19T11:35:11.716Z,24.30
2019-04-19T11:37:39.448Z,24.30
2019-04-19T11:40:27.140Z,24.30
2019-04-19T11:42:55.295Z,24.20
2019-04-19T11:45:23.875Z,24.20
2019-04-19T11:47:51.627Z,24.20
2019-04-19T11:50:19.877Z,24.20
2019-04-19T11:52:50.099Z,24.20
2019-04-19T11:55:18.278Z,24.20
2019-04-19T11:57:54.541Z,24.20
2019-04-19T12:00:33.781Z,24.20
2019-04-19T12:03:04.306Z,24.20
2019-04-19T12:05:34.070Z,24.10
2019-04-19T12:08:02.483Z,24.10
2019-04-19T12:10:32.305Z,24.10
2019-04-19T12:12:59.586Z,24.10
2019-04-19T12:15:30.640Z,24.00
2019-04-19T12:17:58.134Z,24.00
2019-04-19T12:20:26.808Z,24.00
2019-04-19T12:22:55.755Z,23.90
2019-04-19T12:25:23.791Z,23.90
2019-04-19T12:27:51.891Z,23.90
2019-04-19T12:30:19.757Z,23.90
2019-04-19T12:32:49.152Z,23.90
2019-04-19T12:35:16.795Z,23.90
2019-04-19T12:37:45.036Z,23.90
2019-04-19T12:40:12.933Z,23.80
2019-04-19T12:42:41.914Z,23.90
2019-04-19T12:45:10.410Z,23.80
2019-04-19T12:47:38.349Z,23.80
2019-04-19T12:50:09.344Z,23.80
2019-04-19T12:52:37.950Z,23.80
2019-04-19T12:55:06.179Z,23.80
2019-04-19T12:57:36.157Z,23.80
2019-04-19T13:00:05.681Z,23.80
2019-04-19T13:02:38.020Z,23.80
2019-04-19T13:05:10.381Z,23.80
2019-04-19T13:07:38.882Z,23.80
2019-04-19T13:10:06.968Z,23.80
2019-04-19T13:12:34.904Z,23.80
2019-04-19T13:15:03.875Z,23.80
2019-04-19T13:17:31.556Z,23.80
2019-04-19T13:20:07.336Z,23.80
2019-04-19T13:22:28.469Z,23.80
2019-04-19T13:24:57.173Z,23.80
2019-04-19T13:27:35.558Z,23.80
2019-04-19T13:30:06.188Z,23.80
2019-04-19T13:32:23.876Z,23.80
2019-04-19T13:34:51.672Z,23.80
2019-04-19T13:37:24.900Z,23.80
2019-04-19T13:39:54.438Z,23.80
2019-04-19T13:42:24.574Z,23.80
2019-04-19T13:44:52.595Z,23.80
2019-04-19T13:47:20.473Z,23.80
2019-04-19T13:49:50.214Z,23.80
2019-04-19T13:52:18.684Z,23.80
2019-04-19T13:54:46.481Z,23.80
2019-04-19T13:57:15.471Z,23.80
2019-04-19T13:59:51.015Z,23.80
2019-04-19T14:02:12.710Z,23.80
2019-04-19T14:04:41.620Z,23.80
2019-04-19T14:07:09.523Z,23.80
2019-04-19T14:09:37.233Z,23.80
2019-04-19T14:12:05.118Z,23.80
2019-04-19T14:14:32.925Z,23.80
2019-04-19T14:17:01.828Z,23.90
2019-04-19T14:19:31.083Z,23.80
2019-04-19T14:21:58.962Z,23.80
2019-04-19T14:24:27.318Z,23.80
2019-04-19T14:26:57.524Z,23.90
2019-04-19T14:29:25.435Z,23.90
2019-04-19T14:31:54.493Z,23.90
2019-04-19T14:34:22.342Z,23.90
2019-04-19T14:36:49.953Z,23.90
2019-04-19T14:39:18.398Z,23.90
2019-04-19T14:41:47.449Z,23.90
2019-04-19T14:44:15.546Z,23.90
2019-04-19T14:46:43.388Z,23.90
2019-04-19T14:49:11.210Z,23.90
2019-04-19T14:51:40.993Z,23.90
2019-04-19T14:54:08.977Z,23.90
2019-04-19T14:56:37.151Z,23.90
2019-04-19T14:59:04.895Z,23.90
2019-04-19T15:01:37.053Z,24.00
2019-04-19T15:04:06.735Z,23.90
2019-04-19T15:06:35.717Z,24.00
2019-04-19T15:09:03.792Z,24.00
2019-04-19T15:11:31.755Z,24.00
2019-04-19T15:14:00.553Z,24.00
2019-04-19T15:16:28.705Z,24.00
2019-04-19T15:18:56.495Z,24.00
2019-04-19T15:21:24.046Z,24.00
2019-04-19T15:23:52.451Z,24.00
2019-04-19T15:26:20.725Z,24.00
2019-04-19T15:28:48.869Z,24.00
2019-04-19T15:31:16.531Z,24.00
2019-04-19T15:33:44.835Z,24.00
2019-04-19T15:36:13.505Z,24.00
2019-04-19T15:38:41.841Z,24.10
2019-04-19T15:41:10.351Z,24.10
2019-04-19T15:43:38.398Z,24.00
2019-04-19T15:46:06.139Z,24.00
2019-04-19T15:48:40.321Z,24.00
2019-04-19T15:51:13.520Z,24.10
2019-04-19T15:53:32.314Z,24.00
2019-04-19T15:56:00.074Z,24.10
2019-04-19T15:58:28.667Z,24.10
2019-04-19T16:00:58.536Z,24.00
2019-04-19T16:03:31.996Z,24.10
2019-04-19T16:06:04.318Z,24.10
2019-04-19T16:08:34.584Z,24.00
2019-04-19T16:11:20.564Z,24.00
2019-04-19T16:13:48.404Z,24.00
2019-04-19T16:16:16.461Z,24.00
2019-04-19T16:18:44.468Z,24.00
2019-04-19T16:21:23.637Z,24.00
2019-04-19T16:23:42.900Z,23.90
2019-04-19T16:26:10.919Z,23.90
2019-04-19T16:28:39.477Z,23.90
2019-04-19T16:31:08.348Z,23.90
2019-04-19T16:33:36.205Z,24.00
2019-04-19T16:36:04.845Z,23.90
2019-04-19T16:38:32.614Z,23.90
2019-04-19T16:41:01.000Z,23.90
2019-04-19T16:43:29.300Z,23.90
2019-04-19T16:46:05.547Z,24.00
2019-04-19T16:48:26.457Z,24.00
2019-04-19T16:50:54.638Z,24.00
2019-04-19T16:53:22.246Z,24.00
2019-04-19T16:55:49.873Z,24.00
2019-04-19T16:58:18.554Z,24.00
2019-04-19T17:00:47.024Z,23.90
2019-04-19T17:03:14.917Z,23.90
2019-04-19T17:05:42.496Z,23.90
2019-04-19T17:08:11.345Z,23.90
2019-04-19T17:10:39.232Z,23.90
2019-04-19T17:13:06.848Z,23.90
2019-04-19T17:15:39.075Z,23.90
2019-04-19T17:18:20.723Z,23.90
2019-04-19T17:20:52.037Z,23.80
2019-04-19T17:23:20.736Z,23.90
2019-04-19T17:25:55.051Z,23.80
2019-04-19T17:28:23.055Z,23.80
2019-04-19T17:30:50.742Z,23.80
2019-04-19T17:33:18.360Z,23.80
2019-04-19T17:35:48.098Z,23.80
2019-04-19T17:38:29.346Z,23.80
2019-04-19T17:40:45.291Z,23.80
2019-04-19T17:43:13.907Z,23.70
2019-04-19T17:45:42.117Z,23.70
2019-04-19T17:48:10.412Z,23.70
2019-04-19T17:50:38.716Z,23.70
2019-04-19T17:53:06.619Z,23.70
2019-04-19T17:55:41.147Z,23.70
2019-04-19T17:58:03.755Z,23.70
2019-04-19T18:00:32.298Z,23.70
2019-04-19T18:03:01.279Z,23.70
2019-04-19T18:05:29.751Z,23.70
2019-04-19T18:07:58.054Z,23.70
2019-04-19T18:10:33.569Z,23.70
2019-04-19T18:12:55.164Z,23.70
2019-04-19T18:15:23.651Z,23.70
2019-04-19T18:17:55.636Z,23.70
2019-04-19T18:20:23.010Z,23.70
2019-04-19T18:23:00.818Z,23.70
2019-04-19T18:25:25.676Z,23.70
2019-04-19T18:27:56.316Z,23.70
2019-04-19T18:30:22.050Z,23.70
2019-04-19T18:33:00.328Z,23.80
2019-04-19T18:35:31.815Z,23.80
2019-04-19T18:37:57.191Z,23.80
2019-04-19T18:40:24.955Z,23.80
2019-04-19T18:43:07.550Z,23.80
2019-04-19T18:45:25.287Z,23.80
2019-04-19T18:47:52.674Z,23.80
2019-04-19T18:50:20.448Z,23.80
2019-04-19T18:52:53.429Z,23.80
2019-04-19T18:55:28.796Z,23.80
2019-04-19T18:57:49.374Z,23.80
2019-04-19T19:00:18.554Z,23.80
2019-04-19T19:02:53.024Z,23.80
2019-04-19T19:05:16.633Z,23.80
2019-04-19T19:07:45.151Z,23.80
2019-04-19T19:10:18.730Z,23.80
2019-04-19T19:12:45.362Z,23.80
2019-04-19T19:15:12.614Z,23.80
2019-04-19T19:17:43.778Z,23.90
2019-04-19T19:20:16.935Z,23.80
2019-04-19T19:22:56.280Z,23.90
2019-04-19T19:25:29.539Z,23.90
2019-04-19T19:27:46.101Z,23.90
2019-04-19T19:30:15.012Z,23.90
2019-04-19T19:32:49.043Z,24.00
2019-04-19T19:35:17.795Z,24.00
2019-04-19T19:37:43.098Z,24.00
2019-04-19T19:40:23.404Z,24.00
2019-04-19T19:43:03.950Z,24.00
2019-04-19T19:45:28.030Z,24.00
2019-04-19T19:48:17.576Z,24.00
2019-04-19T19:50:48.992Z,23.90
2019-04-19T19:53:19.072Z,23.90
2019-04-19T19:55:44.832Z,23.90
2019-04-19T19:58:00.621Z,23.90
2019-04-19T20:00:32.816Z,23.90
2019-04-19T20:03:05.182Z,23.90
2019-04-19T20:05:30.431Z,23.90
2019-04-19T20:07:53.571Z,23.80
2019-04-19T20:10:25.009Z,23.90
2019-04-19T20:12:55.897Z,23.90
2019-04-19T20:15:21.575Z,23.90
2019-04-19T20:17:54.459Z,23.90
2019-04-19T20:20:20.442Z,23.90
2019-04-19T20:22:50.406Z,23.90
2019-04-19T20:25:28.809Z,23.90
2019-04-19T20:27:50.435Z,23.90
2019-04-19T20:30:16.405Z,23.90
2019-04-19T20:32:44.739Z,23.90
2019-04-19T20:35:19.309Z,24.00
2019-04-19T20:37:46.650Z,23.90
2019-04-19T20:40:17.135Z,23.90
2019-04-19T20:43:08.186Z,23.90
2019-04-19T20:45:21.985Z,23.90
2019-04-19T20:47:46.422Z,23.90
2019-04-19T20:50:42.629Z,23.90
2019-04-19T20:53:14.887Z,23.90
2019-04-19T20:55:53.989Z,23.90
2019-04-19T20:58:20.303Z,23.90
2019-04-19T21:00:40.641Z,23.90
2019-04-19T21:03:08.815Z,23.90
2019-04-19T21:05:42.455Z,23.90
2019-04-19T21:08:09.641Z,24.00
2019-04-19T21:10:35.084Z,24.00
2019-04-19T21:13:07.313Z,24.00
2019-04-19T21:15:35.492Z,24.00
2019-04-19T21:18:01.381Z,24.00
2019-04-19T21:20:31.131Z,24.10
2019-04-19T21:23:03.171Z,24.10
2019-04-19T21:25:38.847Z,24.10
2019-04-19T21:27:59.671Z,24.10
2019-04-19T21:30:27.045Z,24.10
2019-04-19T21:33:03.713Z,24.20
2019-04-19T21:35:25.149Z,24.10
2019-04-19T21:37:52.966Z,24.10
2019-04-19T21:40:28.311Z,24.10
2019-04-19T21:42:54.480Z,24.10
2019-04-19T21:45:19.221Z,24.10
2019-04-19T21:47:51.776Z,24.10
2019-04-19T21:50:17.186Z,24.10
2019-04-19T21:52:53.200Z,24.10
2019-04-19T21:55:26.613Z,24.00
2019-04-19T21:57:44.455Z,24.00
2019-04-19T22:00:23.228Z,24.00
2019-04-19T22:02:48.527Z,24.00
2019-04-19T22:05:26.799Z,23.90
2019-04-19T22:07:50.708Z,23.90
2019-04-19T22:10:19.198Z,23.90
2019-04-19T22:12:49.240Z,23.90
2019-04-19T22:15:17.371Z,23.90
2019-04-19T22:17:47.936Z,23.90
2019-04-19T22:20:17.626Z,23.90
2019-04-19T22:22:43.758Z,23.90
2019-04-19T22:25:28.376Z,23.90
2019-04-19T22:27:41.389Z,23.90
2019-04-19T22:30:09.611Z,23.90
2019-04-19T22:32:38.533Z,23.90
2019-04-19T22:35:09.559Z,23.90
2019-04-19T22:37:37.166Z,23.90
2019-04-19T22:40:05.156Z,23.90
2019-04-19T22:42:37.983Z,23.90
2019-04-19T22:45:04.877Z,23.90
2019-04-19T22:47:33.698Z,23.90
2019-04-19T22:50:02.233Z,23.90
2019-04-19T22:52:29.980Z,23.90
2019-04-19T22:55:03.176Z,23.90
2019-04-19T22:57:37.563Z,23.90
2019-04-19T22:59:59.436Z,23.90
2019-04-19T23:02:49.665Z,23.90
2019-04-19T23:05:14.929Z,23.90
2019-04-19T23:07:48.808Z,23.90
2019-04-19T23:10:12.753Z,23.90
2019-04-19T23:12:41.717Z,23.90
2019-04-19T23:15:17.064Z,23.90
2019-04-19T23:17:42.637Z,23.90
2019-04-19T23:20:09.521Z,23.90
2019-04-19T23:22:41.031Z,23.90
2019-04-19T23:25:09.355Z,23.90
2019-04-19T23:27:44.106Z,23.90
2019-04-19T23:30:17.715Z,23.90
2019-04-19T23:32:44.009Z,23.90
2019-04-19T23:35:12.167Z,23.90
2019-04-19T23:37:42.041Z,23.90
2019-04-19T23:40:09.210Z,23.90
2019-04-19T23:42:41.431Z,23.90
2019-04-19T23:45:06.327Z,23.90
2019-04-19T23:47:37.980Z,23.90
2019-04-19T23:50:04.068Z,23.90
2019-04-19T23:52:32.984Z,23.90
2019-04-19T23:55:02.153Z,23.90
2019-04-19T23:57:36.073Z,23.90
